Time;durP1;ratioP1;P1;durP2;ratioP2;P2;SDS_P1;SDS_P2;PMS_P1;PMS_P2;Temp;Humidity;BMP_temperature;BMP_pressure;BME280_temperature;BME280_humidity;BME280_pressure;Samples;Min_cycle;Max_cycle;Signal;HPM_P1;HPM_P2
2023/10/13 00:02:13;;;;;;;19.27;11.95;;;14.00;99.90;;;;;;4861372;29;20104;-91
2023/10/13 00:04:39;;;;;;;21.15;10.93;;;14.00;99.90;;;;;;4863238;29;20505;-91
2023/10/13 00:07:09;;;;;;;22.52;11.35;;;14.10;99.90;;;;;;4874130;29;20051;-91
2023/10/13 00:09:37;;;;;;;19.17;11.02;;;14.10;99.90;;;;;;4859313;29;20490;-91
2023/10/13 00:12:09;;;;;;;20.20;12.27;;;14.10;99.90;;;;;;4860974;29;20036;-91
2023/10/13 00:14:35;;;;;;;19.73;11.43;;;14.20;99.90;;;;;;4892258;29;20057;-91
2023/10/13 00:17:05;;;;;;;20.15;11.63;;;14.20;99.90;;;;;;4861949;29;20040;-92
2023/10/13 00:19:45;;;;;;;20.83;11.98;;;14.30;99.90;;;;;;4865315;29;20113;-91
2023/10/13 00:22:16;;;;;;;20.00;11.55;;;14.30;99.90;;;;;;4870801;29;20077;-92
2023/10/13 00:24:45;;;;;;;21.98;12.93;;;14.30;99.90;;;;;;4874011;29;20522;-90
2023/10/13 00:30:22;;;;;;;17.77;12.05;;;14.40;99.90;;;;;;4870711;29;20140;-90
2023/10/13 00:32:59;;;;;;;18.35;11.05;;;14.40;99.90;;;;;;4855126;29;20055;-91
2023/10/13 00:35:35;;;;;;;19.95;11.35;;;14.30;99.90;;;;;;4852390;29;20070;-91
2023/10/13 00:38:04;;;;;;;17.60;11.43;;;14.60;99.90;;;;;;4842487;29;20036;-91
2023/10/13 00:45:57;;;;;;;18.83;11.90;;;14.90;99.90;;;;;;4872549;29;20422;-91
2023/10/13 00:48:29;;;;;;;19.13;11.80;;;14.80;99.90;;;;;;4871121;29;20047;-90
2023/10/13 00:50:57;;;;;;;18.15;11.05;;;15.00;99.90;;;;;;4842600;29;20558;-91
2023/10/13 00:53:25;;;;;;;17.95;11.73;;;14.90;99.90;;;;;;4872935;29;20235;-91
2023/10/13 00:55:51;;;;;;;17.25;11.27;;;15.00;99.90;;;;;;4858260;29;20040;-91
2023/10/13 00:58:21;;;;;;;17.83;11.80;;;15.10;99.90;;;;;;4854574;29;20044;-90
2023/10/13 01:00:55;;;;;;;17.63;11.73;;;15.10;99.90;;;;;;4858542;29;20044;-91
2023/10/13 01:03:25;;;;;;;17.88;11.00;;;15.20;99.90;;;;;;4845060;29;20047;-91
2023/10/13 01:05:54;;;;;;;19.15;11.80;;;15.10;99.90;;;;;;4859315;29;20111;-91
2023/10/13 01:08:34;;;;;;;19.08;11.82;;;15.20;99.90;;;;;;4861386;29;20041;-90
2023/10/13 01:11:00;;;;;;;17.05;11.57;;;15.30;99.90;;;;;;4877277;29;20565;-91
2023/10/13 01:13:27;;;;;;;17.27;10.90;;;15.30;99.90;;;;;;4861066;29;20040;-90
2023/10/13 01:15:53;;;;;;;18.05;11.45;;;15.30;99.90;;;;;;4844534;29;20402;-91
2023/10/13 01:18:20;;;;;;;22.00;12.05;;;15.40;99.90;;;;;;4843770;29;20049;-91
2023/10/13 01:20:52;;;;;;;19.42;11.45;;;15.30;99.90;;;;;;4845368;29;20144;-92
2023/10/13 01:23:24;;;;;;;18.58;11.57;;;15.40;99.90;;;;;;4873089;29;20429;-91
2023/10/13 01:25:50;;;;;;;18.67;11.00;;;15.40;99.90;;;;;;4859787;29;20052;-90
2023/10/13 01:28:16;;;;;;;19.92;11.32;;;15.40;99.90;;;;;;4843605;29;20530;-90
2023/10/13 01:30:51;;;;;;;18.13;11.10;;;15.40;99.90;;;;;;4862604;29;20040;-90
2023/10/13 01:33:26;;;;;;;18.35;10.82;;;15.50;99.90;;;;;;4843674;29;20056;-91
2023/10/13 01:35:55;;;;;;;16.92;10.55;;;15.50;99.90;;;;;;4876259;29;20043;-91
2023/10/13 01:38:20;;;;;;;15.60;9.93;;;15.50;99.90;;;;;;4860495;29;20052;-90
2023/10/13 01:40:51;;;;;;;16.67;10.05;;;15.50;99.90;;;;;;4845638;29;20048;-92
2023/10/13 01:43:17;;;;;;;18.60;10.27;;;15.60;99.90;;;;;;4844071;29;20056;-91
2023/10/13 01:45:47;;;;;;;15.30;9.57;;;15.60;99.90;;;;;;4846817;29;20089;-91
2023/10/13 01:48:16;;;;;;;24.00;9.85;;;15.70;99.90;;;;;;4844460;29;20040;-92
2023/10/13 01:50:47;;;;;;;15.43;8.98;;;15.60;99.90;;;;;;4846003;29;20052;-90
2023/10/13 01:53:17;;;;;;;15.38;9.45;;;15.70;99.90;;;;;;4858806;29;20045;-92
2023/10/13 01:55:43;;;;;;;16.15;9.43;;;15.70;99.90;;;;;;4858970;29;20406;-90
2023/10/13 01:58:16;;;;;;;15.23;9.68;;;15.70;99.90;;;;;;4858897;29;20053;-91
2023/10/13 02:00:47;;;;;;;14.52;8.73;;;15.80;99.90;;;;;;4865302;29;20426;-90
2023/10/13 02:03:16;;;;;;;18.10;8.75;;;15.80;99.90;;;;;;4844684;29;20067;-90
2023/10/13 02:05:47;;;;;;;13.35;8.70;;;15.80;99.90;;;;;;4873546;29;20451;-90
2023/10/13 02:08:23;;;;;;;15.02;8.10;;;15.80;99.90;;;;;;4875508;29;20123;-90
2023/10/13 02:10:52;;;;;;;14.25;8.50;;;15.80;99.90;;;;;;4844882;29;20497;-91
2023/10/13 02:13:22;;;;;;;14.07;8.32;;;15.80;99.90;;;;;;4841008;29;20041;-91
2023/10/13 02:15:51;;;;;;;14.02;8.00;;;15.80;99.90;;;;;;4859967;29;20516;-90
2023/10/13 02:18:26;;;;;;;13.95;7.30;;;15.80;99.90;;;;;;4857029;29;20049;-90
2023/10/13 02:20:56;;;;;;;15.50;7.78;;;15.80;99.90;;;;;;4865452;29;20934;-91
2023/10/13 02:23:29;;;;;;;13.75;7.75;;;15.80;99.90;;;;;;4873745;29;20048;-91
2023/10/13 02:26:01;;;;;;;12.57;7.13;;;15.90;99.90;;;;;;4846806;29;20068;-91
2023/10/13 02:28:30;;;;;;;12.55;7.15;;;15.90;99.90;;;;;;4859700;29;20167;-89
2023/10/13 02:30:57;;;;;;;12.15;6.82;;;15.90;99.90;;;;;;4859345;29;20076;-90
2023/10/13 02:33:29;;;;;;;12.30;6.68;;;15.90;99.90;;;;;;4873769;29;20570;-90
2023/10/13 02:36:03;;;;;;;13.10;6.47;;;15.90;99.90;;;;;;4846138;29;20045;-89
2023/10/13 02:41:28;;;;;;;13.35;6.85;;;15.90;99.90;;;;;;4858880;29;20565;-90
2023/10/13 02:43:55;;;;;;;13.15;6.97;;;15.90;99.90;;;;;;4844023;29;20068;-89
2023/10/13 02:46:28;;;;;;;10.40;6.20;;;16.00;99.90;;;;;;4860521;29;20150;-91
2023/10/13 02:48:55;;;;;;;;;;;16.00;99.90;;;;;;4856057;29;20103;-91
2023/10/13 02:51:35;;;;;;;11.63;5.75;;;14.30;99.90;;;;;;4842490;29;19919;-91
2023/10/13 02:54:19;;;;;;;9.73;5.13;;;16.00;99.90;;;;;;4845015;29;20048;-89
2023/10/13 02:57:04;;;;;;;10.48;5.35;;;15.90;99.90;;;;;;4859269;29;20044;-90
2023/10/13 02:59:38;;;;;;;10.00;5.18;;;16.00;99.90;;;;;;4834027;29;20047;-90
2023/10/13 03:02:17;;;;;;;10.93;5.30;;;16.00;99.90;;;;;;4842091;29;20108;-90
2023/10/13 03:04:44;;;;;;;9.57;5.45;;;16.00;99.90;;;;;;4859594;29;20048;-91
2023/10/13 03:07:10;;;;;;;10.07;5.35;;;16.00;99.90;;;;;;4857220;29;20052;-91
2023/10/13 03:09:37;;;;;;;9.85;5.53;;;16.00;99.90;;;;;;4843584;29;20514;-91
2023/10/13 03:12:03;;;;;;;11.98;6.43;;;16.00;99.90;;;;;;4857936;29;20044;-92
2023/10/13 03:14:33;;;;;;;11.13;6.25;;;16.00;99.90;;;;;;4872046;29;20098;-91
2023/10/13 03:17:08;;;;;;;11.65;6.72;;;16.00;99.90;;;;;;4849954;29;20490;-91
2023/10/13 03:19:36;;;;;;;12.95;7.90;;;16.00;99.90;;;;;;4847198;29;20051;-91
2023/10/13 03:22:11;;;;;;;13.88;8.27;;;16.10;99.90;;;;;;4860724;29;20139;-91
2023/10/13 03:24:47;;;;;;;11.90;7.75;;;16.10;99.90;;;;;;4876373;29;20472;-90
2023/10/13 03:27:23;;;;;;;17.70;9.20;;;16.10;99.90;;;;;;4862740;29;20064;-92
2023/10/13 03:29:54;;;;;;;14.23;8.55;;;16.10;99.90;;;;;;4876482;29;20227;-90
2023/10/13 03:32:20;;;;;;;15.13;8.93;;;16.10;99.90;;;;;;4878751;29;20043;-91
2023/10/13 03:37:39;;;;;;;15.60;9.45;;;16.20;99.90;;;;;;4889495;29;20103;-90
2023/10/13 03:45:27;;;;;;;15.77;8.45;;;16.10;99.90;;;;;;4894727;29;20036;-94
2023/10/13 03:47:53;;;;;;;10.48;6.47;;;16.10;99.90;;;;;;4878743;29;20135;-91
2023/10/13 03:50:29;;;;;;;11.13;6.50;;;16.20;99.90;;;;;;4876580;29;20493;-92
2023/10/13 03:53:01;;;;;;;12.13;7.07;;;16.20;99.90;;;;;;4861005;29;20047;-93
2023/10/13 03:55:30;;;;;;;12.07;6.80;;;;;;;;;;4892860;29;20043;-92
2023/10/13 03:58:03;;;;;;;12.35;6.53;;;16.10;99.90;;;;;;4863037;29;20469;-92
2023/10/13 04:00:28;;;;;;;11.20;6.13;;;13.70;99.90;;;;;;4878135;29;20059;-92
2023/10/13 04:03:08;;;;;;;10.52;5.60;;;16.10;99.90;;;;;;4876609;29;20044;-91
2023/10/13 04:05:44;;;;;;;10.85;5.40;;;16.10;99.90;;;;;;4875925;29;20135;-92
2023/10/13 04:32:28;;;;;;;9.85;5.53;;;16.10;99.90;;;;;;4890177;29;20036;-91
2023/10/13 04:37:50;;;;;;;15.82;6.57;;;16.10;99.90;;;;;;4912195;29;20040;-91
2023/10/13 04:43:33;;;;;;;10.48;6.13;;;16.20;99.90;;;;;;4869920;29;20044;-91
2023/10/13 04:46:25;;;;;;;10.35;6.13;;;16.20;99.90;;;;;;4893589;29;20047;-90
2023/10/13 04:48:48;;;;;;;10.05;5.70;;;18.70;99.90;;;;;;4890401;29;20052;-91
2023/10/13 04:54:19;;;;;;;11.15;6.22;;;16.20;99.90;;;;;;4872804;29;20123;-93
2023/10/13 04:57:20;;;;;;;11.35;6.20;;;16.20;99.90;;;;;;4867542;29;20052;-91
2023/10/13 06:29:58;;;;;;;6.80;2.75;;;15.90;99.90;;;;;;4829054;29;20191;-91
2023/10/13 06:33:11;;;;;;;6.70;2.63;;;15.90;99.90;;;;;;4768037;29;20504;-92
2023/10/13 06:35:56;;;;;;;5.90;2.42;;;15.80;99.90;;;;;;4839961;29;20097;-94
2023/10/13 06:38:35;;;;;;;;;;;;;;;;;;;;;
2023/10/13 06:44:46;;;;;;;6.85;2.90;;;15.90;99.90;;;;;;4800393;29;20098;-90
2023/10/13 06:47:13;;;;;;;6.07;2.50;;;16.00;99.90;;;;;;4782206;29;20083;-88
2023/10/13 06:49:43;;;;;;;7.50;2.72;;;15.80;99.90;;;;;;4867714;29;20096;-88
2023/10/13 06:52:19;;;;;;;6.57;2.53;;;15.90;99.90;;;;;;4857436;29;20044;-91
2023/10/13 06:54:50;;;;;;;6.55;2.75;;;15.90;99.90;;;;;;4872705;29;20055;-96
2023/10/13 07:01:50;;;;;;;6.45;2.67;;;16.00;99.90;;;;;;4878929;29;20063;-93
2023/10/13 07:04:23;;;;;;;7.35;2.50;;;16.00;99.90;;;;;;4857569;29;20041;-90
2023/10/13 07:07:16;;;;;;;6.22;2.67;;;16.10;99.90;;;;;;4857488;29;20044;-91
2023/10/13 07:10:00;;;;;;;5.78;2.40;;;17.50;99.90;;;;;;4858717;29;20119;-90
2023/10/13 07:12:55;;;;;;;5.45;2.20;;;16.10;99.90;;;;;;4863748;29;20049;-92
2023/10/13 07:15:37;;;;;;;6.40;2.28;;;15.80;99.90;;;;;;4857682;29;20029;-93
2023/10/13 07:18:12;;;;;;;6.80;2.20;;;16.20;99.90;;;;;;4873538;29;20064;-89
2023/10/13 07:20:44;;;;;;;6.10;2.22;;;15.40;99.90;;;;;;4873957;29;20107;-93
2023/10/13 07:23:18;;;;;;;7.43;2.38;;;16.20;99.90;;;;;;4900728;29;20048;-91
2023/10/13 07:26:02;;;;;;;6.72;2.40;;;16.30;99.90;;;;;;4878225;29;20090;-89
2023/10/13 07:28:35;;;;;;;7.07;2.50;;;;;;;;;;4861518;29;20043;-94
2023/10/13 07:33:35;;;;;;;9.10;2.83;;;16.30;99.90;;;;;;4889150;29;20044;-90
2023/10/13 07:39:09;;;;;;;7.90;2.78;;;16.30;99.90;;;;;;4875322;29;20119;-88
2023/10/13 07:41:36;;;;;;;;;;;17.70;99.90;;;;;;4861137;29;20036;-91
2023/10/13 07:44:04;;;;;;;8.18;2.50;;;16.30;99.90;;;;;;4874834;29;19923;-91
2023/10/13 07:46:35;;;;;;;8.88;2.63;;;16.30;99.90;;;;;;4862804;29;20075;-91
2023/10/13 07:49:10;;;;;;;7.55;2.63;;;16.30;99.90;;;;;;4878928;29;20048;-92
2023/10/13 07:51:44;;;;;;;8.60;2.85;;;16.30;99.90;;;;;;4862775;29;20052;-90
2023/10/13 07:54:14;;;;;;;11.57;3.00;;;16.30;99.90;;;;;;4889501;29;20037;-91
2023/10/13 07:56:40;;;;;;;7.53;3.05;;;16.20;99.90;;;;;;4863487;29;20454;-90
2023/10/13 07:59:09;;;;;;;8.38;2.58;;;16.30;99.90;;;;;;4874448;29;20048;-92
2023/10/13 08:01:37;;;;;;;9.40;3.10;;;16.20;99.90;;;;;;4892932;29;20470;-93
2023/10/13 08:04:11;;;;;;;10.07;2.80;;;16.30;99.90;;;;;;4878112;29;20521;-91
2023/10/13 08:06:45;;;;;;;8.25;2.65;;;16.20;99.90;;;;;;4890282;29;20044;-91
2023/10/13 08:09:40;;;;;;;8.70;2.75;;;16.20;99.90;;;;;;4862088;29;20040;-93
2023/10/13 08:12:21;;;;;;;8.57;3.15;;;16.20;99.90;;;;;;4856613;29;20473;-93
2023/10/13 08:14:47;;;;;;;8.18;2.92;;;16.20;99.90;;;;;;4889871;29;20052;-89
2023/10/13 08:17:14;;;;;;;10.48;2.92;;;16.20;99.90;;;;;;4874785;29;20505;-91
2023/10/13 08:19:45;;;;;;;8.68;3.17;;;16.20;99.90;;;;;;4879159;29;20506;-92
2023/10/13 08:50:47;;;;;;;9.07;3.00;;;16.50;99.90;;;;;;4892836;29;20096;-94
2023/10/13 08:56:17;;;;;;;9.70;3.20;;;16.60;99.90;;;;;;4896553;29;20075;-93
2023/10/13 09:07:10;;;;;;;8.25;3.03;;;16.70;99.90;;;;;;4887002;29;20525;-90
2023/10/13 09:09:47;;;;;;;8.25;2.72;;;16.70;99.90;;;;;;4891865;29;20530;-90
2023/10/13 09:13:00;;;;;;;8.60;3.33;;;16.90;99.90;;;;;;4875506;29;20047;-92
2023/10/13 09:18:13;;;;;;;10.18;3.22;;;16.90;99.90;;;;;;4890466;29;20497;-92
2023/10/13 09:20:45;;;;;;;7.72;2.97;;;17.00;99.90;;;;;;4892363;29;20119;-92
2023/10/13 09:23:24;;;;;;;9.82;3.63;;;17.00;99.90;;;;;;4877610;29;20525;-90
2023/10/13 09:25:53;;;;;;;9.68;3.38;;;17.10;99.90;;;;;;4877438;29;20056;-90
2023/10/13 09:28:26;;;;;;;10.82;3.72;;;17.20;99.90;;;;;;4891599;29;20080;-93
2023/10/13 09:30:56;;;;;;;9.45;3.20;;;17.20;99.90;;;;;;4877158;29;20089;-93
2023/10/13 09:33:51;;;;;;;9.80;3.63;;;17.30;99.90;;;;;;4896787;29;20529;-96
2023/10/13 09:36:20;;;;;;;9.73;3.25;;;17.30;99.90;;;;;;4878603;29;20041;-93
2023/10/13 09:39:29;;;;;;;11.02;3.92;;;17.30;99.90;;;;;;4878195;29;20087;-91
2023/10/13 09:42:18;;;;;;;9.70;3.45;;;17.50;99.90;;;;;;4880792;29;20080;-94
2023/10/13 09:44:51;;;;;;;8.98;3.72;;;17.20;99.90;;;;;;4900721;29;20048;-93
2023/10/13 09:47:36;;;;;;;11.82;3.60;;;17.40;99.90;;;;;;4881368;29;20047;-91
2023/10/13 09:50:13;;;;;;;7.85;3.42;;;17.60;99.90;;;;;;4880673;29;20562;-91
2023/10/13 09:52:46;;;;;;;8.15;3.53;;;17.60;99.90;;;;;;4893551;29;20482;-92
2023/10/13 09:55:34;;;;;;;9.95;3.67;;;17.70;99.90;;;;;;4881607;29;20040;-93
2023/10/13 09:58:13;;;;;;;8.25;3.40;;;17.70;99.90;;;;;;4892961;29;20051;-90
2023/10/13 10:00:58;;;;;;;10.13;3.53;;;17.80;99.90;;;;;;4879149;29;20054;-92
2023/10/13 10:03:39;;;;;;;9.40;3.80;;;17.90;99.90;;;;;;4879316;29;20086;-92
2023/10/13 10:06:18;;;;;;;9.30;3.65;;;18.00;99.90;;;;;;4877674;29;20497;-90
2023/10/13 10:08:51;;;;;;;8.75;3.45;;;18.00;99.90;;;;;;4882208;29;20652;-94
2023/10/13 10:11:47;;;;;;;8.63;3.25;;;18.80;99.90;;;;;;4879376;29;20127;-91
2023/10/13 10:15:06;;;;;;;11.20;3.42;;;18.20;99.90;;;;;;4877291;29;20131;-91
2023/10/13 10:17:53;;;;;;;9.13;3.30;;;18.30;99.90;;;;;;4872466;29;20574;-90
2023/10/13 10:20:42;;;;;;;8.85;3.00;;;18.20;99.90;;;;;;4875721;29;20043;-88
2023/10/13 10:23:23;;;;;;;11.68;3.30;;;16.50;99.90;;;;;;4846107;29;20044;-91
2023/10/13 10:26:15;;;;;;;12.20;3.47;;;18.20;99.90;;;;;;4890148;29;20047;-90
2023/10/13 10:28:44;;;;;;;9.07;3.28;;;18.30;99.90;;;;;;4876585;29;20429;-91
2023/10/13 10:31:22;;;;;;;10.13;3.53;;;18.40;99.90;;;;;;4863022;29;20047;-92
2023/10/13 10:33:52;;;;;;;10.60;3.33;;;18.40;99.90;;;;;;4855749;29;20052;-89
2023/10/13 10:36:29;;;;;;;9.35;3.55;;;18.40;99.90;;;;;;4858889;29;20192;-90
2023/10/13 10:39:04;;;;;;;10.30;3.38;;;18.50;99.90;;;;;;4855518;29;20044;-91
2023/10/13 10:41:51;;;;;;;12.18;3.55;;;18.50;99.90;;;;;;4857828;29;20048;-89
2023/10/13 10:44:37;;;;;;;11.00;3.28;;;18.60;99.90;;;;;;4857931;29;20055;-90
2023/10/13 10:47:51;;;;;;;10.38;3.30;;;18.70;99.90;;;;;;4847513;29;20061;-90
2023/10/13 10:50:26;;;;;;;8.52;3.20;;;18.70;99.90;;;;;;4871043;29;20461;-89
2023/10/13 10:52:57;;;;;;;9.57;3.20;;;18.80;99.90;;;;;;4857229;29;20882;-91
2023/10/13 10:55:28;;;;;;;9.68;3.42;;;18.80;99.90;;;;;;4859268;29;20212;-91
2023/10/13 10:58:06;;;;;;;9.18;3.38;;;18.80;99.90;;;;;;4860317;29;20410;-89
2023/10/13 11:03:30;;;;;;;10.80;3.38;;;19.00;99.90;;;;;;4857329;29;20112;-92
2023/10/13 11:05:56;;;;;;;10.23;3.60;;;18.90;99.90;;;;;;4874939;29;20261;-90
2023/10/13 11:08:37;;;;;;;15.15;3.42;;;19.00;99.90;;;;;;4858546;29;20056;-90
2023/10/13 11:11:23;;;;;;;10.00;3.47;;;19.00;99.90;;;;;;4875616;29;20056;-89
2023/10/13 11:13:53;;;;;;;10.52;3.50;;;18.40;99.90;;;;;;4854746;29;20151;-90
2023/10/13 11:16:42;;;;;;;10.02;3.38;;;19.20;99.90;;;;;;4872296;29;20143;-89
2023/10/13 11:19:11;;;;;;;9.43;3.08;;;19.30;99.90;;;;;;4844765;29;20602;-88
2023/10/13 11:21:52;;;;;;;9.75;3.15;;;19.40;99.90;;;;;;4865368;29;20104;-89
2023/10/13 11:24:27;;;;;;;10.02;3.33;;;19.40;99.90;;;;;;4870550;29;20052;-90
2023/10/13 11:27:06;;;;;;;8.55;3.05;;;19.30;99.90;;;;;;4877334;29;20051;-92
2023/10/13 11:29:39;;;;;;;9.68;3.17;;;19.30;99.90;;;;;;4861813;29;20036;-92
2023/10/13 11:32:08;;;;;;;11.15;3.20;;;18.50;99.90;;;;;;4890563;29;20547;-91
2023/10/13 11:34:39;;;;;;;11.07;3.15;;;19.30;99.90;;;;;;4875632;29;20047;-92
2023/10/13 11:37:28;;;;;;;10.80;3.25;;;19.40;99.90;;;;;;4873085;29;20040;-91
2023/10/13 11:39:55;;;;;;;9.48;3.25;;;18.30;99.90;;;;;;4893352;29;20060;-90
2023/10/13 11:42:20;;;;;;;9.30;3.55;;;19.30;99.90;;;;;;4860562;29;20079;-90
2023/10/13 11:45:01;;;;;;;9.55;3.22;;;19.40;99.90;;;;;;4858475;29;20044;-93
2023/10/13 11:47:47;;;;;;;9.23;3.13;;;19.30;99.90;;;;;;4847322;29;20462;-91
2023/10/13 11:53:56;;;;;;;12.40;3.75;;;19.10;99.90;;;;;;4871598;29;20044;-93
2023/10/13 11:56:28;;;;;;;;;;;19.00;99.90;;;;;;4890601;29;20043;-92
2023/10/13 11:59:46;;;;;;;11.02;3.42;;;18.90;99.90;;;;;;4889568;29;20018;-92
2023/10/13 12:05:48;;;;;;;9.70;3.50;;;18.80;99.90;;;;;;4890125;29;20040;-90
2023/10/13 12:08:21;;;;;;;10.02;3.50;;;18.80;99.90;;;;;;4863360;29;20584;-93
2023/10/13 12:11:30;;;;;;;9.50;3.35;;;18.80;99.90;;;;;;4863403;29;20047;-92
2023/10/13 12:13:54;;;;;;;10.55;3.60;;;;;;;;;;4881899;29;20050;-93
2023/10/13 12:16:21;;;;;;;12.13;4.05;;;18.90;99.90;;;;;;4884438;29;20044;-92
2023/10/13 12:18:53;;;;;;;11.27;3.70;;;18.90;99.90;;;;;;4879095;29;20083;-92
2023/10/13 12:21:29;;;;;;;8.13;2.97;;;19.00;99.90;;;;;;4909242;29;20523;-92
2023/10/13 12:24:11;;;;;;;10.80;3.30;;;18.40;99.90;;;;;;4859462;29;20370;-89
2023/10/13 12:27:19;;;;;;;12.50;3.85;;;19.10;99.90;;;;;;4892280;29;20612;-92
2023/10/13 12:30:35;;;;;;;10.13;3.70;;;19.10;99.90;;;;;;4878672;29;20074;-91
2023/10/13 12:33:42;;;;;;;10.48;3.65;;;17.40;99.90;;;;;;4877403;29;20048;-93
2023/10/13 12:50:34;;;;;;;11.85;3.90;;;19.00;99.90;;;;;;4888922;29;20117;-94
2023/10/13 12:53:05;;;;;;;11.05;3.80;;;18.90;99.90;;;;;;4861611;29;20130;-88
2023/10/13 12:55:31;;;;;;;10.40;3.60;;;18.80;99.90;;;;;;4847475;29;20128;-92
2023/10/13 12:57:57;;;;;;;10.30;3.65;;;18.80;99.90;;;;;;4862053;29;20093;-92
2023/10/13 13:00:34;;;;;;;10.60;3.58;;;18.70;99.90;;;;;;4860912;29;20044;-92
2023/10/13 13:03:11;;;;;;;10.25;3.88;;;;;;;;;;4854132;29;20032;-92
2023/10/13 13:05:44;;;;;;;9.98;3.60;;;18.70;99.90;;;;;;4894092;29;20055;-91
2023/10/13 13:08:21;;;;;;;10.30;3.60;;;18.60;99.90;;;;;;4896874;29;20682;-91
2023/10/13 13:11:07;;;;;;;12.15;4.07;;;18.60;99.90;;;;;;4879507;29;21261;-91
2023/10/13 13:14:02;;;;;;;;;;;;;;;;;;;;;
2023/10/13 13:16:42;;;;;;;10.00;3.90;;;18.50;99.90;;;;;;4881438;29;20140;-90
2023/10/13 13:19:33;;;;;;;;;;;;;;;;;;;;;
2023/10/13 13:22:03;;;;;;;10.50;4.00;;;18.40;99.90;;;;;;4872831;29;20087;-92
2023/10/13 13:24:55;;;;;;;;;;;18.50;99.90;;;;;;4847315;29;20148;-93
2023/10/13 13:27:27;;;;;;;11.15;4.05;;;19.00;99.90;;;;;;4859316;29;20384;-91
2023/10/13 13:30:47;;;;;;;;;;;;;;;;;;;;;
2023/10/13 13:33:23;;;;;;;9.07;3.80;;;18.30;99.90;;;;;;4800324;29;20475;-90
2023/10/13 13:35:53;;;;;;;14.10;4.60;;;18.30;99.90;;;;;;4782244;29;20066;-91
2023/10/13 13:38:31;;;;;;;9.00;3.50;;;18.30;99.90;;;;;;4843404;29;20068;-90
2023/10/13 13:40:59;;;;;;;10.32;3.90;;;18.30;99.90;;;;;;4844245;29;20048;-91
2023/10/13 13:43:41;;;;;;;10.05;4.10;;;18.20;99.90;;;;;;4846072;29;20067;-90
2023/10/13 13:46:10;;;;;;;12.38;4.63;;;18.20;99.90;;;;;;4848484;29;20213;-93
2023/10/13 13:48:42;;;;;;;10.20;3.70;;;18.20;99.90;;;;;;4854863;29;20131;-89
2023/10/13 13:51:14;;;;;;;13.30;4.25;;;17.50;99.90;;;;;;4855332;29;20112;-92
2023/10/13 13:53:50;;;;;;;15.05;4.03;;;18.20;99.90;;;;;;4860586;29;20059;-93
2023/10/13 13:56:19;;;;;;;12.05;3.83;;;18.20;99.90;;;;;;4859081;29;20040;-93
2023/10/13 13:59:07;;;;;;;9.77;3.92;;;17.50;99.90;;;;;;4844329;29;20095;-90
2023/10/13 14:01:47;;;;;;;10.10;3.80;;;18.20;99.90;;;;;;4857931;29;20043;-92
2023/10/13 14:04:17;;;;;;;10.90;4.68;;;18.10;99.90;;;;;;4860139;29;20051;-89
2023/10/13 14:06:50;;;;;;;11.77;3.92;;;18.30;99.90;;;;;;4858164;29;20041;-91
2023/10/13 14:09:36;;;;;;;8.77;3.90;;;18.30;99.90;;;;;;4857258;29;20047;-91
2023/10/13 14:12:29;;;;;;;10.73;4.05;;;18.20;99.90;;;;;;4870218;29;20450;-90
2023/10/13 14:15:03;;;;;;;10.98;4.03;;;18.30;99.90;;;;;;4851719;29;20100;-91
2023/10/13 14:17:35;;;;;;;13.68;4.07;;;18.10;99.90;;;;;;4843005;29;20044;-89
2023/10/13 14:20:18;;;;;;;13.07;4.80;;;18.40;99.90;;;;;;4874180;29;20044;-92
2023/10/13 14:23:12;;;;;;;9.68;3.70;;;18.20;99.90;;;;;;4866111;29;20526;-93
2023/10/13 14:25:57;;;;;;;11.93;3.75;;;18.30;99.90;;;;;;4876920;29;20128;-92
2023/10/13 14:28:26;;;;;;;12.75;4.40;;;18.30;99.90;;;;;;4863755;29;20056;-92
2023/10/13 14:30:58;;;;;;;11.73;3.78;;;18.30;99.90;;;;;;4853102;29;20581;-93
2023/10/13 14:33:47;;;;;;;10.10;4.25;;;18.30;99.90;;;;;;4856512;29;20041;-95
2023/10/13 14:36:17;;;;;;;12.00;4.20;;;18.30;99.90;;;;;;4876339;29;20052;-94
2023/10/13 14:39:20;;;;;;;10.70;4.00;;;18.40;99.90;;;;;;4861532;29;20048;-94
2023/10/13 14:41:52;;;;;;;11.68;4.18;;;18.30;99.90;;;;;;4871716;29;20415;-92
2023/10/13 14:44:43;;;;;;;11.15;4.45;;;18.30;99.90;;;;;;4853807;29;20131;-89
2023/10/13 14:47:15;;;;;;;11.15;4.32;;;18.90;99.90;;;;;;4828022;29;20438;-90
2023/10/13 14:49:47;;;;;;;13.25;4.63;;;18.30;99.90;;;;;;4872624;29;20416;-91
2023/10/13 14:52:31;;;;;;;11.13;4.30;;;18.20;99.90;;;;;;4842368;29;20052;-93
2023/10/13 14:55:00;;;;;;;10.70;4.20;;;18.30;99.90;;;;;;4872988;29;20135;-89
2023/10/13 14:57:28;;;;;;;10.50;4.18;;;18.20;99.90;;;;;;4871912;29;20044;-91
2023/10/13 14:59:55;;;;;;;10.90;4.47;;;18.20;99.90;;;;;;4859778;29;20054;-91
2023/10/13 15:02:24;;;;;;;11.38;4.53;;;18.20;99.90;;;;;;4858014;29;20045;-90
2023/10/13 15:04:53;;;;;;;12.07;4.25;;;18.30;99.90;;;;;;4845589;29;20037;-92
2023/10/13 15:07:20;;;;;;;11.75;3.85;;;18.30;99.90;;;;;;4874465;29;20111;-89
2023/10/13 15:09:48;;;;;;;12.32;4.53;;;18.30;99.90;;;;;;4860808;29;20080;-90
2023/10/13 15:12:20;;;;;;;11.93;3.88;;;18.20;99.90;;;;;;4860364;29;20080;-91
2023/10/13 15:14:48;;;;;;;10.95;4.22;;;18.30;99.90;;;;;;4845538;29;20064;-91
2023/10/13 15:17:39;;;;;;;11.50;4.05;;;18.30;99.90;;;;;;4858232;29;20116;-92
2023/10/13 15:20:18;;;;;;;10.55;3.97;;;18.20;99.90;;;;;;4874639;29;20523;-91
2023/10/13 15:22:47;;;;;;;10.52;3.85;;;;;;;;;;4837786;29;20084;-90
2023/10/13 15:26:09;;;;;;;10.87;3.87;;;18.10;99.90;;;;;;4874715;29;20510;-89
2023/10/13 15:28:33;;;;;;;9.50;3.85;;;18.10;99.90;;;;;;4873847;29;20040;-90
2023/10/13 15:31:22;;;;;;;10.88;4.20;;;18.00;99.90;;;;;;4870960;29;20049;-88
2023/10/13 15:33:58;;;;;;;10.93;3.90;;;17.90;99.90;;;;;;4869680;29;20044;-90
2023/10/13 15:39:28;;;;;;;10.77;4.15;;;17.90;99.90;;;;;;4855590;29;20206;-90
2023/10/13 15:41:58;;;;;;;9.73;4.00;;;18.80;99.90;;;;;;4859310;29;20040;-90
2023/10/13 15:44:25;;;;;;;9.68;3.90;;;16.60;99.90;;;;;;4857829;29;20037;-90
2023/10/13 15:47:00;;;;;;;12.07;4.45;;;17.80;99.90;;;;;;4860225;29;20071;-90
2023/10/13 15:49:29;;;;;;;11.93;4.10;;;18.60;99.90;;;;;;4845434;29;20043;-89
2023/10/13 15:52:01;;;;;;;11.18;4.22;;;17.80;99.90;;;;;;4872058;29;20124;-89
2023/10/13 15:54:30;;;;;;;14.88;5.15;;;17.70;99.90;;;;;;4858917;29;21025;-93
2023/10/13 15:56:55;;;;;;;11.80;4.32;;;17.60;99.90;;;;;;4873433;29;20516;-92
2023/10/13 15:59:24;;;;;;;11.80;4.63;;;17.60;99.90;;;;;;4859453;29;20115;-90
2023/10/13 16:01:54;;;;;;;11.32;4.43;;;17.60;99.90;;;;;;4858305;29;20108;-90
2023/10/13 16:04:23;;;;;;;10.35;4.18;;;17.70;99.90;;;;;;4857541;29;20131;-90
2023/10/13 16:06:52;;;;;;;11.98;4.70;;;17.70;99.90;;;;;;4859371;29;20044;-90
2023/10/13 16:09:29;;;;;;;9.90;4.40;;;17.70;99.90;;;;;;4875867;29;20163;-89
2023/10/13 16:12:10;;;;;;;10.55;4.63;;;;;;;;;;4875203;29;20111;-90
2023/10/13 16:14:40;;;;;;;10.75;4.30;;;17.70;99.90;;;;;;4856218;29;20056;-89
2023/10/13 16:17:08;;;;;;;8.88;4.10;;;17.60;99.90;;;;;;4844278;29;20048;-90
2023/10/13 16:19:39;;;;;;;11.70;4.50;;;17.60;99.90;;;;;;4870589;29;20045;-90
2023/10/13 16:22:07;;;;;;;12.35;4.55;;;17.70;99.90;;;;;;4864024;29;20480;-90
2023/10/13 16:24:47;;;;;;;13.52;4.25;;;17.70;99.90;;;;;;4848537;29;20052;-91
2023/10/13 16:27:22;;;;;;;11.90;4.65;;;16.50;99.90;;;;;;4862374;29;20044;-89
2023/10/13 16:29:47;;;;;;;9.95;3.78;;;17.70;99.90;;;;;;4908671;29;20036;-91
2023/10/13 16:32:16;;;;;;;12.20;3.92;;;17.60;99.90;;;;;;4894421;29;20406;-90
2023/10/13 16:35:00;;;;;;;9.45;4.20;;;17.60;99.90;;;;;;4896380;29;20131;-90
2023/10/13 16:37:26;;;;;;;10.30;3.70;;;17.70;99.90;;;;;;4911400;29;20122;-91
2023/10/13 16:39:53;;;;;;;10.10;3.75;;;17.70;99.90;;;;;;4848700;29;20083;-89
2023/10/13 16:42:19;;;;;;;10.73;3.65;;;19.10;99.90;;;;;;4880601;29;20044;-90
2023/10/13 16:44:45;;;;;;;10.68;4.20;;;17.60;99.90;;;;;;4895113;29;20120;-89
2023/10/13 16:47:16;;;;;;;10.32;4.00;;;17.60;99.90;;;;;;4880687;29;20513;-90
2023/10/13 16:49:44;;;;;;;10.00;3.70;;;17.60;99.90;;;;;;4878615;29;20445;-90
2023/10/13 16:52:10;;;;;;;9.35;3.33;;;17.60;99.90;;;;;;4897003;29;20569;-92
2023/10/13 16:54:36;;;;;;;10.35;3.67;;;17.60;99.90;;;;;;4849066;29;20044;-89
2023/10/13 16:57:06;;;;;;;9.80;3.05;;;17.60;99.90;;;;;;4890906;29;20040;-90
2023/10/13 16:59:32;;;;;;;10.57;3.38;;;17.70;99.90;;;;;;4865959;29;20096;-91
2023/10/13 17:02:04;;;;;;;9.13;3.17;;;17.70;99.90;;;;;;4863769;29;20394;-91
2023/10/13 17:04:32;;;;;;;9.33;3.17;;;17.70;99.90;;;;;;4878318;29;20112;-91
2023/10/13 17:07:01;;;;;;;9.13;3.10;;;17.70;99.90;;;;;;4866437;29;20108;-91
2023/10/13 17:09:27;;;;;;;10.27;2.80;;;18.00;99.90;;;;;;4881096;29;20534;-88
2023/10/13 17:11:53;;;;;;;8.88;3.00;;;17.80;99.90;;;;;;4861100;29;20044;-89
2023/10/13 17:14:19;;;;;;;6.82;2.40;;;17.80;99.90;;;;;;4850033;29;20032;-89